Rudd, Arkansas
Current Conditions -  °F | °C
As of 1:53 PM on Friday 24 Oct 2014 (Local Time) from KHRO Reporting Station
Scattered Clouds Scattered Clouds  
Wind Chill: 74°   Ceiling: Unl
Heat Index: 74°   Visibility: 10mi
Dew Point: 59°   Wind: 6mph
Humidity: 59%   Direction: 260°W
Pressure: 30.1"   Gusts: NA
Location:  36.3056°N, 93.5491°W
Report Text: KHRO 241853Z AUTO 26005KT 10SM SCT039 23/15 A3010 RMK AO2 SLP185 T02330150
Loading
Personal Weather Stations






























Interactive Weather Map
Tropical Storm Tracking
New forecast layout! Learn more

10-Day Weather Forecast

Advertisements
Track Severe Weather on mobile